Time;durP1;ratioP1;P1;durP2;ratioP2;P2;SDS_P1;SDS_P2;PMS_P1;PMS_P2;Temp;Humidity;BMP_temperature;BMP_pressure;BME280_temperature;BME280_humidity;BME280_pressure;Samples;Min_cycle;Max_cycle;Signal;HPM_P1;HPM_P2
2022/02/26 00:01:26;;;;;;;0.32;0.32;;;4.40;99.90;;;;;;5031407;28;20481;-67
2022/02/26 00:04:30;;;;;;;1.05;0.30;;;4.30;99.90;;;;;;5031166;28;20480;-67
2022/02/26 00:07:35;;;;;;;1.20;0.30;;;4.30;99.90;;;;;;5031360;28;20041;-67
2022/02/26 00:10:39;;;;;;;4.50;0.93;;;4.30;99.90;;;;;;5031131;28;20046;-67
2022/02/26 00:13:43;;;;;;;7.35;4.55;;;4.20;99.90;;;;;;5030674;28;20041;-67
2022/02/26 00:16:47;;;;;;;0.47;0.32;;;4.20;99.90;;;;;;5030756;28;20045;-67
2022/02/26 00:19:51;;;;;;;1.00;0.63;;;4.20;99.90;;;;;;5030137;28;20034;-66
2022/02/26 00:22:55;;;;;;;0.50;0.50;;;4.10;99.90;;;;;;5030517;28;20476;-67
2022/02/26 00:25:58;;;;;;;1.35;1.25;;;4.10;99.90;;;;;;5030802;28;20046;-67
2022/02/26 00:29:03;;;;;;;2.22;1.20;;;4.10;99.90;;;;;;5030352;28;20473;-67
2022/02/26 00:32:07;;;;;;;0.43;0.40;;;4.10;99.90;;;;;;5030489;28;20041;-67
2022/02/26 00:35:11;;;;;;;0.20;0.20;;;4.10;99.90;;;;;;5030745;28;20041;-67
2022/02/26 00:38:15;;;;;;;0.22;0.22;;;4.00;99.90;;;;;;5030164;28;20026;-67
2022/02/26 00:41:20;;;;;;;1.42;1.15;;;4.00;99.90;;;;;;5029406;28;20045;-67
2022/02/26 00:44:24;;;;;;;0.30;0.30;;;4.00;99.90;;;;;;5030319;28;20041;-67
2022/02/26 00:47:28;;;;;;;0.20;0.20;;;4.00;99.90;;;;;;5030367;28;20029;-67
2022/02/26 00:50:32;;;;;;;1.20;0.93;;;4.00;99.90;;;;;;5030449;28;20045;-70
2022/02/26 00:53:37;;;;;;;0.20;0.20;;;4.10;99.90;;;;;;5030190;28;20045;-67
2022/02/26 00:56:42;;;;;;;0.20;0.20;;;4.20;99.90;;;;;;5030354;28;20381;-67
2022/02/26 00:59:46;;;;;;;0.20;0.20;;;4.20;99.90;;;;;;5029747;28;20037;-67
2022/02/26 01:02:50;;;;;;;0.20;0.20;;;4.10;99.90;;;;;;5030274;28;20034;-70
2022/02/26 01:05:54;;;;;;;0.30;0.30;;;4.20;99.90;;;;;;5030107;28;20045;-70
2022/02/26 01:08:59;;;;;;;0.40;0.30;;;4.10;99.90;;;;;;5029983;28;20362;-69
2022/02/26 01:12:05;;;;;;;0.25;0.25;;;4.10;99.90;;;;;;5029942;28;20033;-67
2022/02/26 01:15:09;;;;;;;0.38;0.32;;;4.10;99.90;;;;;;5029967;28;20025;-68
2022/02/26 01:18:13;;;;;;;0.70;0.50;;;4.00;99.90;;;;;;5029633;28;20025;-69
2022/02/26 01:21:18;;;;;;;0.22;0.20;;;4.30;99.90;;;;;;5029935;28;20571;-67
2022/02/26 01:24:22;;;;;;;0.38;0.30;;;4.20;99.90;;;;;;5030233;28;20361;-70
2022/02/26 01:27:26;;;;;;;1.27;0.80;;;4.20;99.90;;;;;;5029045;28;20041;-70
2022/02/26 01:30:30;;;;;;;2.00;0.55;;;4.40;99.90;;;;;;5029957;28;20041;-67
2022/02/26 01:33:34;;;;;;;1.00;0.75;;;4.50;99.90;;;;;;5030053;28;20065;-68
2022/02/26 01:36:39;;;;;;;0.22;0.20;;;4.80;99.90;;;;;;5029589;28;20042;-69
2022/02/26 01:39:43;;;;;;;5.82;0.40;;;4.80;99.90;;;;;;5029838;28;20362;-69
2022/02/26 01:42:49;;;;;;;1.38;0.90;;;4.90;99.90;;;;;;5029488;28;20034;-68
2022/02/26 01:45:53;;;;;;;0.20;0.20;;;4.90;99.90;;;;;;5029750;28;20488;-67
2022/02/26 01:48:58;;;;;;;0.30;0.30;;;5.00;99.90;;;;;;5029255;28;20049;-67
2022/02/26 01:52:03;;;;;;;1.58;0.20;;;4.90;99.90;;;;;;5029634;28;20030;-67
2022/02/26 01:55:08;;;;;;;1.85;0.90;;;4.80;99.90;;;;;;5029705;28;20045;-68
2022/02/26 01:58:12;;;;;;;8.38;0.70;;;4.70;99.90;;;;;;5029180;28;20037;-67
2022/02/26 02:01:16;;;;;;;2.35;0.90;;;4.70;99.90;;;;;;5029625;28;20041;-68
2022/02/26 02:04:20;;;;;;;2.25;0.98;;;4.60;99.90;;;;;;5029479;28;20041;-69
2022/02/26 02:07:24;;;;;;;0.65;0.40;;;4.60;99.90;;;;;;5029755;28;20030;-69
2022/02/26 02:10:28;;;;;;;0.57;0.30;;;4.50;99.90;;;;;;5029847;28;20045;-68
2022/02/26 02:13:34;;;;;;;3.53;1.75;;;4.60;99.90;;;;;;5029658;28;20373;-69
2022/02/26 02:16:38;;;;;;;5.68;2.70;;;4.60;99.90;;;;;;5029543;28;20041;-69
2022/02/26 02:19:42;;;;;;;0.30;0.30;;;4.60;99.90;;;;;;5029691;28;20038;-66
2022/02/26 02:22:47;;;;;;;1.48;0.52;;;4.50;99.90;;;;;;5033012;28;20045;-68
2022/02/26 02:25:54;;;;;;;0.30;0.30;;;4.50;99.90;;;;;;5033133;28;20037;-67
2022/02/26 02:29:00;;;;;;;1.05;0.28;;;4.50;99.90;;;;;;5032721;28;20377;-69
2022/02/26 02:32:05;;;;;;;3.65;1.17;;;4.50;99.90;;;;;;5032351;28;20370;-67
2022/02/26 02:35:30;;;;;;;0.85;0.50;;;4.60;99.90;;;;;;5033236;28;20370;-68
2022/02/26 02:38:34;;;;;;;1.45;0.50;;;4.60;99.90;;;;;;5032656;28;20041;-66
2022/02/26 02:41:41;;;;;;;7.10;2.92;;;4.70;99.90;;;;;;5031701;28;20029;-67
2022/02/26 02:44:45;;;;;;;0.30;0.30;;;4.70;99.90;;;;;;5032590;28;20033;-66
2022/02/26 02:47:49;;;;;;;4.72;2.25;;;4.60;99.90;;;;;;5032731;28;20041;-67
2022/02/26 02:50:54;;;;;;;0.80;0.60;;;4.70;99.90;;;;;;5032313;28;20049;-67
2022/02/26 02:53:58;;;;;;;6.35;2.20;;;4.80;99.90;;;;;;5032498;28;20041;-68
2022/02/26 02:57:02;;;;;;;3.10;0.88;;;4.80;99.90;;;;;;5032397;28;20037;-69
2022/02/26 03:00:07;;;;;;;2.00;1.30;;;4.80;99.90;;;;;;5032248;28;20041;-68
2022/02/26 03:03:11;;;;;;;3.67;0.85;;;4.90;99.90;;;;;;5032416;28;20057;-66
2022/02/26 03:06:16;;;;;;;1.00;0.47;;;4.90;99.90;;;;;;5032154;28;20393;-67
2022/02/26 03:09:21;;;;;;;1.50;0.57;;;4.90;99.90;;;;;;5032138;28;20049;-65
2022/02/26 03:12:25;;;;;;;0.63;0.50;;;4.80;99.90;;;;;;5032298;28;20365;-66
2022/02/26 03:15:29;;;;;;;0.60;0.60;;;4.80;99.90;;;;;;5031712;28;20038;-66
2022/02/26 03:18:33;;;;;;;2.60;0.40;;;4.90;99.90;;;;;;5031704;28;20037;-66
2022/02/26 03:21:39;;;;;;;4.88;0.70;;;5.00;99.90;;;;;;5032535;28;20045;-65
2022/02/26 03:24:44;;;;;;;4.60;0.40;;;5.00;99.90;;;;;;5031977;28;20045;-61
2022/02/26 03:27:48;;;;;;;0.30;0.30;;;5.10;99.90;;;;;;5032379;28;20034;-64
2022/02/26 03:30:52;;;;;;;2.00;0.50;;;5.20;99.90;;;;;;5031692;28;20041;-62
2022/02/26 03:33:56;;;;;;;0.43;0.40;;;5.20;99.90;;;;;;5031510;28;20049;-60
2022/02/26 03:37:01;;;;;;;1.02;0.63;;;5.20;99.90;;;;;;5030807;28;20062;-62
2022/02/26 03:40:06;;;;;;;0.70;0.43;;;5.30;99.90;;;;;;5031434;28;20037;-61
2022/02/26 03:43:10;;;;;;;1.63;0.50;;;5.30;99.90;;;;;;5031944;28;20385;-62
2022/02/26 03:46:14;;;;;;;5.53;0.88;;;5.30;99.90;;;;;;5031353;28;20041;-61
2022/02/26 03:49:18;;;;;;;1.00;0.70;;;5.30;99.90;;;;;;5030792;28;20506;-61
2022/02/26 03:52:22;;;;;;;2.47;0.60;;;5.40;99.90;;;;;;5031300;28;20033;-63
2022/02/26 03:55:27;;;;;;;1.77;0.60;;;5.40;99.90;;;;;;5031121;28;20374;-60
2022/02/26 03:58:30;;;;;;;1.50;0.73;;;5.30;99.90;;;;;;5031210;28;20460;-60
2022/02/26 04:01:35;;;;;;;3.33;0.80;;;5.40;99.90;;;;;;5030434;28;20184;-62
2022/02/26 04:04:40;;;;;;;1.52;0.70;;;5.50;99.90;;;;;;5031891;28;20041;-61
2022/02/26 04:07:44;;;;;;;3.80;1.10;;;5.60;99.90;;;;;;5031366;28;20044;-68
2022/02/26 04:10:48;;;;;;;3.63;1.35;;;5.50;99.90;;;;;;5031355;28;20033;-68
2022/02/26 04:13:52;;;;;;;6.60;1.77;;;5.60;99.90;;;;;;5031179;28;20042;-67
2022/02/26 04:16:56;;;;;;;1.42;0.63;;;5.60;99.90;;;;;;5030595;28;20046;-61
2022/02/26 04:20:01;;;;;;;2.05;0.82;;;5.60;99.90;;;;;;5030564;28;20037;-68
2022/02/26 04:23:06;;;;;;;7.03;0.63;;;5.70;99.90;;;;;;5031363;28;20531;-62
2022/02/26 04:26:11;;;;;;;3.63;0.90;;;5.60;99.90;;;;;;5029420;28;20034;-61
2022/02/26 04:29:15;;;;;;;2.60;0.88;;;5.60;99.90;;;;;;5030673;28;20373;-61
2022/02/26 04:32:19;;;;;;;0.95;0.70;;;5.60;99.90;;;;;;5030734;28;20476;-62
2022/02/26 04:35:23;;;;;;;2.15;0.63;;;5.50;99.90;;;;;;5030721;28;20029;-63
2022/02/26 04:38:29;;;;;;;2.03;1.00;;;5.50;99.90;;;;;;5030411;28;20041;-64
2022/02/26 04:41:33;;;;;;;1.65;0.65;;;5.50;99.90;;;;;;5029787;28;20034;-63
2022/02/26 04:44:38;;;;;;;1.30;0.70;;;5.50;99.90;;;;;;5029822;28;20041;-64
2022/02/26 04:47:43;;;;;;;2.45;1.00;;;5.50;99.90;;;;;;5030488;28;20045;-62
2022/02/26 04:50:47;;;;;;;2.45;0.95;;;5.50;99.90;;;;;;5030907;28;20037;-61
2022/02/26 04:53:51;;;;;;;5.75;1.30;;;5.60;99.90;;;;;;5030110;28;20392;-61
2022/02/26 04:56:55;;;;;;;2.22;0.80;;;5.70;99.90;;;;;;5030374;28;20037;-62
2022/02/26 04:59:59;;;;;;;8.68;0.95;;;5.60;99.90;;;;;;5030030;28;20041;-61
2022/02/26 05:03:04;;;;;;;3.63;0.90;;;5.60;99.90;;;;;;5030481;28;20033;-62
2022/02/26 05:06:08;;;;;;;3.28;0.77;;;5.60;99.90;;;;;;5029544;28;20041;-63
2022/02/26 05:09:12;;;;;;;2.00;0.80;;;5.60;99.90;;;;;;5029482;28;20045;-63
2022/02/26 05:12:16;;;;;;;2.15;0.60;;;5.70;99.90;;;;;;5030243;28;20045;-62
2022/02/26 05:15:20;;;;;;;2.45;0.60;;;5.70;99.90;;;;;;5029860;28;20377;-62
2022/02/26 05:18:25;;;;;;;3.38;0.70;;;5.80;99.90;;;;;;5029061;28;20033;-62
2022/02/26 05:21:29;;;;;;;1.92;0.50;;;5.90;99.60;;;;;;5030340;28;20033;-61
2022/02/26 05:24:34;;;;;;;1.52;0.65;;;5.90;99.90;;;;;;5029817;28;20365;-61
2022/02/26 05:27:41;;;;;;;4.13;0.73;;;5.90;99.90;;;;;;5029707;28;20038;-63
2022/02/26 05:30:45;;;;;;;2.97;0.65;;;5.90;99.90;;;;;;5029476;28;20042;-62
2022/02/26 05:33:49;;;;;;;4.63;0.80;;;5.90;99.90;;;;;;5029398;28;20041;-63
2022/02/26 05:36:53;;;;;;;2.40;0.80;;;5.90;99.90;;;;;;5029860;28;20038;-62
2022/02/26 05:39:57;;;;;;;3.53;0.82;;;5.90;99.90;;;;;;5029244;28;20034;-63
2022/02/26 05:43:02;;;;;;;0.98;0.52;;;5.70;99.90;;;;;;5029811;28;20476;-64
2022/02/26 05:46:07;;;;;;;2.53;0.50;;;5.50;99.90;;;;;;5029737;28;20037;-62
2022/02/26 05:49:11;;;;;;;0.43;0.43;;;4.90;99.90;;;;;;5029078;28;20049;-63
2022/02/26 05:52:15;;;;;;;1.25;0.50;;;4.40;99.90;;;;;;5029634;28;20489;-62
2022/02/26 05:55:19;;;;;;;1.73;0.70;;;4.00;99.90;;;;;;5029799;28;20033;-63
2022/02/26 05:58:25;;;;;;;1.40;0.50;;;3.90;99.90;;;;;;5033197;28;20029;-62
2022/02/26 06:01:29;;;;;;;2.63;0.70;;;3.90;99.90;;;;;;5033992;28;20374;-62
2022/02/26 06:04:34;;;;;;;2.10;0.93;;;4.00;99.90;;;;;;5033093;28;20033;-62
2022/02/26 06:07:37;;;;;;;1.77;0.70;;;4.90;99.90;;;;;;5034455;28;20041;-62
2022/02/26 06:10:41;;;;;;;5.28;0.90;;;4.80;99.90;;;;;;5033368;28;20388;-62
2022/02/26 06:13:46;;;;;;;3.70;0.80;;;4.70;99.90;;;;;;5033071;28;20038;-63
2022/02/26 06:16:50;;;;;;;3.45;0.60;;;4.60;99.90;;;;;;5032917;28;20477;-62
2022/02/26 06:19:54;;;;;;;5.90;1.25;;;4.40;99.90;;;;;;5032980;28;20038;-63
2022/02/26 06:22:58;;;;;;;4.70;0.77;;;4.30;99.90;;;;;;5033160;28;20045;-63
2022/02/26 06:26:03;;;;;;;3.13;0.55;;;4.20;99.90;;;;;;5033164;28;20045;-63
2022/02/26 06:29:07;;;;;;;0.60;0.60;;;4.10;99.90;;;;;;5032172;28;20037;-60
2022/02/26 06:32:12;;;;;;;2.17;0.70;;;4.10;99.90;;;;;;5032361;28;20038;-62
2022/02/26 06:35:15;;;;;;;3.10;0.88;;;4.10;99.90;;;;;;5032934;28;20041;-62
2022/02/26 06:38:19;;;;;;;2.60;0.93;;;4.10;99.90;;;;;;5032248;28;20042;-63
2022/02/26 06:41:23;;;;;;;3.22;0.90;;;4.10;99.90;;;;;;5032564;28;20037;-61
2022/02/26 06:44:27;;;;;;;2.60;1.00;;;4.30;99.90;;;;;;5032062;28;20452;-63
2022/02/26 06:47:33;;;;;;;4.80;1.10;;;4.40;99.90;;;;;;5032665;28;20037;-62
2022/02/26 06:50:38;;;;;;;6.18;1.10;;;4.40;99.90;;;;;;5032628;28;20484;-63
2022/02/26 06:53:42;;;;;;;4.03;1.00;;;4.50;99.90;;;;;;5032356;28;20407;-62
2022/02/26 06:56:46;;;;;;;4.18;1.00;;;4.60;99.90;;;;;;5032691;28;20041;-63
2022/02/26 06:59:50;;;;;;;2.17;1.40;;;4.70;99.90;;;;;;5031803;28;20029;-63
2022/02/26 07:02:55;;;;;;;2.03;1.10;;;4.70;99.90;;;;;;5032851;28;20045;-63
2022/02/26 07:05:59;;;;;;;11.88;1.58;;;5.00;99.90;;;;;;5033017;28;20070;-63
2022/02/26 07:09:03;;;;;;;5.07;1.20;;;5.30;99.90;;;;;;5031352;28;20048;-62
2022/02/26 07:12:09;;;;;;;3.38;1.13;;;5.30;99.90;;;;;;5032501;28;20274;-63
2022/02/26 07:15:13;;;;;;;3.35;1.02;;;5.40;99.90;;;;;;5032614;28;20045;-63
2022/02/26 07:18:16;;;;;;;3.45;1.00;;;5.70;99.90;;;;;;5031825;28;20037;-62
2022/02/26 07:21:21;;;;;;;7.00;1.33;;;5.80;99.90;;;;;;5032327;28;20041;-63
2022/02/26 07:24:25;;;;;;;4.47;1.25;;;5.60;99.90;;;;;;5032377;28;20406;-62
2022/02/26 07:27:29;;;;;;;2.03;0.93;;;5.40;99.90;;;;;;5032204;28;20732;-63
2022/02/26 07:30:35;;;;;;;4.50;1.10;;;5.80;99.90;;;;;;5031562;28;20378;-63
2022/02/26 07:33:39;;;;;;;7.55;1.20;;;6.20;99.90;;;;;;5031702;28;20049;-59
2022/02/26 07:36:44;;;;;;;2.20;0.80;;;6.50;99.90;;;;;;5032157;28;20037;-62
2022/02/26 07:39:48;;;;;;;3.17;1.40;;;6.90;99.90;;;;;;5031431;28;20053;-62
2022/02/26 07:42:52;;;;;;;4.25;0.90;;;7.30;99.90;;;;;;5031643;28;20037;-62
2022/02/26 07:45:56;;;;;;;2.90;1.27;;;7.60;99.80;;;;;;5031355;28;20041;-60
2022/02/26 07:49:01;;;;;;;6.80;1.20;;;7.80;99.20;;;;;;5031850;28;20049;-59
2022/02/26 07:52:05;;;;;;;2.15;0.90;;;8.30;98.40;;;;;;5032865;28;20045;-59
2022/02/26 07:55:09;;;;;;;7.63;1.63;;;8.40;98.10;;;;;;5032346;28;20037;-60
2022/02/26 07:58:13;;;;;;;3.17;1.02;;;8.20;97.60;;;;;;5032111;28;20488;-61
2022/02/26 08:01:18;;;;;;;1.55;1.00;;;8.30;97.50;;;;;;5032609;28;20049;-60
2022/02/26 08:04:21;;;;;;;2.50;0.80;;;8.20;96.90;;;;;;5031809;28;20045;-60
2022/02/26 08:07:25;;;;;;;2.25;0.82;;;8.20;98.10;;;;;;5032164;28;20049;-60
2022/02/26 08:10:29;;;;;;;1.60;0.90;;;8.00;96.70;;;;;;5031427;28;20488;-60
2022/02/26 08:13:34;;;;;;;4.15;1.20;;;7.90;97.10;;;;;;5031332;28;20049;-62
2022/02/26 08:16:39;;;;;;;7.28;2.08;;;8.10;98.00;;;;;;5031130;28;20049;-61
2022/02/26 08:19:44;;;;;;;4.63;1.25;;;7.80;99.90;;;;;;5030031;28;20319;-60
2022/02/26 08:22:49;;;;;;;9.32;1.25;;;7.20;99.90;;;;;;5030953;28;20049;-62
2022/02/26 08:25:55;;;;;;;2.53;0.90;;;6.60;99.90;;;;;;5030455;28;20057;-61
2022/02/26 08:29:00;;;;;;;6.72;1.73;;;6.70;99.90;;;;;;5029165;28;20034;-63
2022/02/26 08:32:05;;;;;;;4.03;1.02;;;7.00;99.90;;;;;;5030349;28;20045;-62
2022/02/26 08:35:11;;;;;;;1.95;0.82;;;7.50;99.90;;;;;;5030616;28;20033;-62
2022/02/26 08:38:15;;;;;;;2.08;0.90;;;8.10;99.90;;;;;;5030326;28;20042;-61
2022/02/26 08:41:19;;;;;;;1.90;0.80;;;7.90;99.90;;;;;;5031105;28;20372;-60
2022/02/26 08:44:23;;;;;;;3.45;0.70;;;7.80;98.50;;;;;;5030802;28;20812;-60
2022/02/26 08:47:29;;;;;;;2.80;1.23;;;7.90;99.90;;;;;;5030632;28;20037;-61
2022/02/26 08:50:33;;;;;;;6.35;1.20;;;7.30;99.90;;;;;;5030183;28;20045;-61
2022/02/26 08:53:38;;;;;;;3.85;0.93;;;7.40;99.90;;;;;;5030418;28;20045;-62
2022/02/26 08:56:42;;;;;;;6.53;1.20;;;7.60;99.90;;;;;;5030423;28;20037;-60
2022/02/26 08:59:46;;;;;;;2.40;0.82;;;7.10;99.90;;;;;;5029552;28;20400;-60
2022/02/26 09:02:51;;;;;;;4.57;0.90;;;7.50;99.90;;;;;;5030543;28;20041;-61
2022/02/26 09:05:54;;;;;;;2.70;0.80;;;8.30;99.90;;;;;;5029558;28;20041;-61
2022/02/26 09:08:59;;;;;;;3.63;1.23;;;8.60;99.90;;;;;;5029989;28;20049;-61
2022/02/26 09:12:04;;;;;;;2.97;0.90;;;8.90;99.90;;;;;;5028896;28;20037;-62
2022/02/26 09:15:08;;;;;;;5.45;0.93;;;8.50;99.50;;;;;;5029049;28;20045;-61
2022/02/26 09:18:13;;;;;;;3.70;0.85;;;8.90;99.90;;;;;;5029993;28;20457;-61
2022/02/26 09:21:17;;;;;;;3.80;1.10;;;8.80;99.90;;;;;;5028721;28;20493;-63
2022/02/26 09:24:21;;;;;;;2.22;0.90;;;8.60;99.90;;;;;;5030176;28;20045;-61
2022/02/26 09:27:26;;;;;;;4.05;1.17;;;8.50;99.90;;;;;;5028719;28;20049;-62
2022/02/26 09:30:30;;;;;;;2.35;0.88;;;8.20;99.90;;;;;;5030363;28;20037;-62
2022/02/26 09:33:37;;;;;;;10.10;1.23;;;8.60;99.90;;;;;;5035160;28;20037;-61
2022/02/26 09:36:41;;;;;;;4.32;1.08;;;8.70;99.90;;;;;;5034433;28;20052;-62
2022/02/26 09:39:45;;;;;;;3.45;0.93;;;8.90;99.90;;;;;;5033411;28;20057;-61
2022/02/26 09:42:49;;;;;;;4.32;1.23;;;9.20;99.90;;;;;;5033718;28;20033;-61
2022/02/26 09:45:55;;;;;;;14.65;1.73;;;9.40;99.90;;;;;;5033838;28;20041;-62
2022/02/26 09:49:00;;;;;;;2.20;0.80;;;9.50;99.00;;;;;;5033781;28;20056;-62
2022/02/26 09:52:07;;;;;;;2.53;0.95;;;9.40;99.90;;;;;;5029628;28;20049;-62
2022/02/26 09:55:13;;;;;;;2.72;1.13;;;9.40;99.90;;;;;;5032864;28;20037;-62
2022/02/26 09:58:19;;;;;;;3.42;0.90;;;9.50;99.90;;;;;;5032301;28;20488;-61
2022/02/26 10:01:24;;;;;;;2.40;0.75;;;9.30;97.70;;;;;;5012419;28;20026;-62
2022/02/26 10:04:29;;;;;;;1.52;0.85;;;9.40;99.60;;;;;;5012824;28;20038;-62
2022/02/26 10:07:34;;;;;;;1.85;0.90;;;9.60;99.90;;;;;;5026459;28;20041;-62
2022/02/26 10:10:42;;;;;;;2.88;1.55;;;9.20;96.00;;;;;;5032179;28;20053;-62
2022/02/26 10:13:46;;;;;;;4.80;1.10;;;9.30;99.10;;;;;;5031268;28;20476;-62
2022/02/26 10:16:53;;;;;;;2.20;0.75;;;9.10;99.70;;;;;;5031880;28;20041;-62
2022/02/26 10:20:26;;;;;;;4.43;1.02;;;9.20;99.50;;;;;;5029687;28;20037;-62
2022/02/26 10:23:30;;;;;;;2.83;1.00;;;9.30;99.60;;;;;;5030353;28;20049;-63
2022/02/26 10:26:34;;;;;;;1.55;0.85;;;9.40;99.90;;;;;;5031317;28;20037;-62
2022/02/26 10:29:39;;;;;;;2.50;0.65;;;9.50;99.40;;;;;;5026921;28;20045;-62
2022/02/26 10:32:43;;;;;;;2.05;0.60;;;9.40;96.70;;;;;;5012216;28;20041;-61
2022/02/26 10:35:57;;;;;;;6.95;0.90;;;9.60;94.60;;;;;;5013632;28;20374;-62
2022/02/26 10:39:03;;;;;;;3.33;0.93;;;9.60;94.00;;;;;;5012972;28;20037;-62
2022/02/26 10:42:10;;;;;;;3.40;1.13;;;8.80;98.50;;;;;;5013018;28;20038;-61
2022/02/26 10:45:22;;;;;;;1.55;0.82;;;9.30;97.00;;;;;;5013581;28;20034;-61
2022/02/26 10:48:38;;;;;;;;;;;9.60;97.10;;;;;;5014334;28;20038;-60
2022/02/26 10:51:44;;;;;;;4.93;1.40;;;9.80;96.00;;;;;;5012736;28;19916;-61
2022/02/26 10:54:55;;;;;;;2.55;0.68;;;9.40;97.20;;;;;;5013196;28;20050;-61
2022/02/26 10:57:59;;;;;;;1.98;0.70;;;9.20;95.40;;;;;;5013372;28;20757;-61
2022/02/26 11:01:15;;;;;;;3.42;0.90;;;9.40;96.10;;;;;;5023074;28;20042;-61
2022/02/26 11:04:19;;;;;;;3.58;1.50;;;9.60;94.80;;;;;;5012890;28;20030;-61
2022/02/26 11:07:26;;;;;;;4.57;0.98;;;9.00;94.90;;;;;;5013130;28;20038;-61
2022/02/26 11:10:30;;;;;;;4.32;1.05;;;9.40;95.60;;;;;;5012645;28;20370;-60
2022/02/26 11:13:37;;;;;;;2.60;0.77;;;8.60;97.00;;;;;;5013321;28;20038;-61
2022/02/26 11:16:43;;;;;;;2.20;0.65;;;9.00;94.10;;;;;;5013256;28;20041;-62
2022/02/26 11:19:47;;;;;;;2.42;0.80;;;9.60;93.40;;;;;;5020498;28;20040;-60
2022/02/26 11:22:58;;;;;;;1.60;0.70;;;9.80;91.60;;;;;;5029670;28;20045;-62
2022/02/26 11:26:03;;;;;;;1.88;0.60;;;9.90;92.90;;;;;;5031666;28;20288;-61
2022/02/26 11:29:09;;;;;;;0.90;0.57;;;9.80;92.90;;;;;;5032033;28;20414;-62
2022/02/26 11:32:15;;;;;;;5.32;0.80;;;9.90;93.10;;;;;;5030620;28;20060;-62
2022/02/26 11:35:24;;;;;;;2.85;0.95;;;9.90;92.60;;;;;;5032360;28;20053;-62
2022/02/26 11:38:34;;;;;;;3.63;0.80;;;9.80;92.30;;;;;;5032248;28;20041;-62
2022/02/26 11:41:38;;;;;;;2.00;0.60;;;9.80;91.80;;;;;;5031151;28;20038;-61
2022/02/26 11:44:44;;;;;;;1.83;0.90;;;9.90;91.70;;;;;;5031835;28;20045;-61
2022/02/26 11:47:52;;;;;;;1.60;0.68;;;10.20;92.20;;;;;;5031771;28;20041;-61
2022/02/26 11:51:06;;;;;;;2.08;1.15;;;9.60;92.20;;;;;;5030923;28;20511;-61
2022/02/26 11:54:15;;;;;;;3.15;1.17;;;9.70;91.90;;;;;;5030842;28;20049;-61
2022/02/26 11:57:20;;;;;;;4.80;1.52;;;9.40;91.20;;;;;;5031978;28;20041;-60
2022/02/26 12:00:24;;;;;;;4.47;2.25;;;9.40;92.10;;;;;;5031225;28;20476;-61
2022/02/26 12:03:44;;;;;;;5.07;1.00;;;9.50;92.30;;;;;;5031457;28;20041;-61
2022/02/26 12:06:55;;;;;;;1.80;0.80;;;9.30;91.60;;;;;;5031356;28;20037;-60
2022/02/26 12:10:01;;;;;;;3.20;1.30;;;9.50;93.80;;;;;;5031743;28;20373;-61
2022/02/26 12:13:31;;;;;;;4.93;1.88;;;9.40;92.00;;;;;;5031055;28;20477;-62
2022/02/26 12:16:40;;;;;;;6.50;1.50;;;9.70;92.40;;;;;;5042545;28;20046;-61
2022/02/26 12:19:46;;;;;;;4.85;2.00;;;9.60;91.60;;;;;;5031160;28;20523;-61
2022/02/26 12:22:50;;;;;;;3.42;1.00;;;9.30;92.40;;;;;;5030077;28;20045;-61
2022/02/26 12:26:01;;;;;;;3.33;1.70;;;9.20;93.30;;;;;;5031724;28;20045;-61
2022/02/26 12:29:06;;;;;;;3.80;1.13;;;9.10;92.80;;;;;;5031496;28;20377;-60
2022/02/26 12:32:18;;;;;;;5.40;1.30;;;8.90;92.00;;;;;;5030684;28;20041;-61
2022/02/26 12:35:29;;;;;;;3.50;1.02;;;8.60;92.00;;;;;;5031020;28;20049;-61
2022/02/26 12:38:34;;;;;;;1.75;0.80;;;8.50;93.50;;;;;;5030838;28;20041;-61
2022/02/26 12:41:38;;;;;;;2.20;1.08;;;8.90;93.70;;;;;;5030182;28;20041;-61
2022/02/26 12:44:43;;;;;;;5.72;1.45;;;9.10;92.70;;;;;;5030895;28;20041;-60
2022/02/26 12:47:47;;;;;;;3.88;0.88;;;8.80;91.90;;;;;;5030680;28;20496;-63
2022/02/26 12:50:54;;;;;;;3.42;0.80;;;8.70;91.80;;;;;;5030443;28;20045;-61
2022/02/26 12:53:58;;;;;;;3.88;1.67;;;8.70;92.10;;;;;;5030612;28;20053;-61
2022/02/26 12:57:03;;;;;;;2.70;1.40;;;8.60;91.50;;;;;;5031055;28;20033;-61
2022/02/26 13:00:11;;;;;;;2.72;1.25;;;8.50;91.30;;;;;;5030421;28;20046;-62
2022/02/26 13:03:21;;;;;;;1.65;1.08;;;8.60;91.40;;;;;;5030700;28;21334;-61
2022/02/26 13:06:26;;;;;;;2.97;1.50;;;8.60;92.20;;;;;;5029686;28;20050;-61
2022/02/26 13:09:30;;;;;;;6.15;1.15;;;8.80;91.40;;;;;;5030461;28;20045;-62
2022/02/26 13:12:39;;;;;;;3.85;2.35;;;8.60;91.10;;;;;;5029873;28;20045;-61
2022/02/26 13:15:46;;;;;;;2.60;1.63;;;8.50;91.40;;;;;;5030369;28;20041;-61
2022/02/26 13:18:50;;;;;;;3.53;1.20;;;8.50;90.50;;;;;;5030581;28;20046;-60
2022/02/26 13:21:57;;;;;;;6.50;3.80;;;8.30;90.60;;;;;;5029456;28;20038;-61
2022/02/26 13:25:00;;;;;;;2.80;1.10;;;8.30;92.00;;;;;;5030126;28;20045;-62
2022/02/26 13:28:06;;;;;;;5.15;1.08;;;8.30;91.70;;;;;;5030074;28;20037;-61
2022/02/26 13:31:10;;;;;;;3.90;1.50;;;8.30;91.70;;;;;;5030064;28;20041;-61
2022/02/26 13:34:15;;;;;;;2.38;0.80;;;8.10;91.70;;;;;;5029758;28;20045;-61
2022/02/26 13:37:22;;;;;;;5.10;1.92;;;8.20;92.00;;;;;;5030230;28;20037;-59
2022/02/26 13:40:27;;;;;;;2.50;1.67;;;8.10;92.10;;;;;;5030202;28;20022;-61
2022/02/26 13:43:32;;;;;;;3.70;1.40;;;8.20;92.30;;;;;;5029677;28;20045;-62
2022/02/26 13:46:37;;;;;;;4.13;1.10;;;8.20;92.20;;;;;;5029855;28;20033;-61
2022/02/26 13:49:43;;;;;;;5.60;1.10;;;8.30;92.60;;;;;;5029697;28;20033;-61
2022/02/26 13:52:50;;;;;;;2.05;1.05;;;8.30;92.70;;;;;;5029641;28;20504;-61
2022/02/26 13:56:00;;;;;;;2.85;0.90;;;8.40;92.60;;;;;;5030117;28;20481;-61
2022/02/26 13:59:13;;;;;;;3.95;1.00;;;8.60;91.40;;;;;;5030112;28;20041;-61
2022/02/26 14:02:23;;;;;;;3.40;1.10;;;8.90;91.50;;;;;;5029585;28;20038;-61
2022/02/26 14:05:30;;;;;;;5.32;0.90;;;9.00;92.50;;;;;;5029701;28;20041;-61
2022/02/26 14:08:38;;;;;;;19.55;2.45;;;9.00;92.50;;;;;;5029695;28;20025;-60
2022/02/26 14:11:43;;;;;;;2.63;1.20;;;8.90;92.60;;;;;;5029552;28;20041;-61
2022/02/26 14:14:47;;;;;;;12.27;4.78;;;8.80;92.10;;;;;;5029310;28;20042;-61
2022/02/26 14:17:56;;;;;;;4.95;1.25;;;8.80;92.50;;;;;;5032202;28;20412;-61
2022/02/26 14:21:00;;;;;;;6.05;2.85;;;8.70;92.30;;;;;;5031648;28;20033;-60
2022/02/26 14:24:06;;;;;;;6.90;2.40;;;8.50;92.20;;;;;;5033873;28;20041;-61
2022/02/26 14:27:16;;;;;;;8.15;3.15;;;8.50;91.70;;;;;;5033291;28;20045;-61
2022/02/26 14:30:23;;;;;;;3.22;1.30;;;8.90;91.50;;;;;;5032490;28;20042;-60
2022/02/26 14:33:27;;;;;;;5.70;1.42;;;9.10;91.30;;;;;;5032364;28;20042;-62
2022/02/26 14:36:31;;;;;;;4.25;1.45;;;8.90;91.40;;;;;;5033373;28;20033;-61
2022/02/26 14:39:36;;;;;;;3.03;0.98;;;8.80;91.20;;;;;;5033468;28;20038;-60
2022/02/26 14:42:42;;;;;;;2.28;1.00;;;8.80;90.90;;;;;;5031655;28;20038;-60
2022/02/26 14:45:46;;;;;;;3.47;1.02;;;9.00;91.70;;;;;;5032724;28;20037;-60
2022/02/26 14:48:50;;;;;;;3.03;0.90;;;9.00;90.80;;;;;;5032127;28;20037;-60
2022/02/26 14:51:54;;;;;;;3.25;1.20;;;9.00;91.90;;;;;;5032274;28;20037;-61
2022/02/26 14:54:58;;;;;;;3.25;1.70;;;8.60;91.50;;;;;;5043068;28;20037;-62
2022/02/26 14:58:02;;;;;;;1.80;1.02;;;8.70;91.60;;;;;;5032872;28;20049;-61
2022/02/26 15:01:06;;;;;;;3.90;1.30;;;8.60;91.50;;;;;;5032364;28;20037;-60
2022/02/26 15:04:10;;;;;;;1.85;0.90;;;8.50;91.10;;;;;;5032467;28;20037;-61
2022/02/26 15:07:17;;;;;;;4.20;1.30;;;8.80;91.90;;;;;;5032806;28;20037;-61
2022/02/26 15:10:22;;;;;;;2.15;0.98;;;9.20;91.50;;;;;;5032696;28;20045;-60
2022/02/26 15:13:26;;;;;;;2.55;0.93;;;9.60;91.00;;;;;;5032712;28;20049;-60
2022/02/26 15:16:30;;;;;;;2.03;1.10;;;9.70;90.70;;;;;;5032905;28;20041;-61
2022/02/26 15:19:34;;;;;;;11.95;1.60;;;9.40;90.60;;;;;;5032758;28;20037;-61
2022/02/26 15:22:39;;;;;;;5.10;1.83;;;9.00;90.60;;;;;;5032329;28;20619;-61
2022/02/26 15:25:43;;;;;;;2.13;0.82;;;9.10;91.40;;;;;;5030969;28;20048;-61
2022/02/26 15:28:47;;;;;;;3.22;0.95;;;9.40;91.80;;;;;;5030463;28;20041;-62
2022/02/26 15:31:51;;;;;;;2.53;1.00;;;9.60;91.80;;;;;;5031582;28;20381;-61
2022/02/26 15:34:56;;;;;;;2.75;0.90;;;9.70;90.10;;;;;;5031972;28;20041;-61
2022/02/26 15:38:00;;;;;;;4.22;1.02;;;9.90;90.40;;;;;;5032162;28;20041;-61
2022/02/26 15:41:04;;;;;;;3.05;1.00;;;10.10;90.50;;;;;;5031750;28;20041;-61
2022/02/26 15:44:09;;;;;;;3.17;0.90;;;9.80;90.80;;;;;;5031430;28;20060;-61
2022/02/26 15:47:13;;;;;;;2.85;0.85;;;9.70;91.00;;;;;;5032558;28;20049;-62
2022/02/26 15:50:17;;;;;;;3.97;0.90;;;9.30;91.30;;;;;;5031302;28;20041;-61
2022/02/26 15:53:22;;;;;;;4.93;1.20;;;9.30;91.30;;;;;;5031957;28;20370;-61
2022/02/26 15:56:26;;;;;;;3.45;1.25;;;9.60;91.70;;;;;;5031798;28;20041;-61
2022/02/26 15:59:30;;;;;;;3.33;1.75;;;10.00;91.20;;;;;;5031704;28;20042;-62
2022/02/26 16:02:34;;;;;;;11.45;5.80;;;10.40;90.90;;;;;;5030901;28;20045;-61
2022/02/26 16:05:38;;;;;;;7.57;6.65;;;10.30;90.80;;;;;;5031532;28;20052;-61
2022/02/26 16:08:43;;;;;;;5.00;2.28;;;10.10;91.50;;;;;;5031832;28;20049;-62
2022/02/26 16:11:47;;;;;;;7.53;1.10;;;10.00;90.90;;;;;;5031087;28;20048;-61
2022/02/26 16:14:51;;;;;;;4.25;1.52;;;10.20;90.10;;;;;;5031152;28;20052;-61
2022/02/26 16:17:55;;;;;;;4.63;1.75;;;10.20;91.60;;;;;;5031378;28;20044;-61